sensor_id;sensor_type;location;lat;lon;timestamp;temperature;humidity
39019;DHT22;24786;51.984;5.872;2022-12-07T00:01:43;4.60;99.90
39019;DHT22;24786;51.984;5.872;2022-12-07T00:04:14;4.60;99.90
39019;DHT22;24786;51.984;5.872;2022-12-07T00:06:41;4.50;99.90
39019;DHT22;24786;51.984;5.872;2022-12-07T00:09:11;4.50;99.90
39019;DHT22;24786;51.984;5.872;2022-12-07T00:11:37;4.40;99.90
39019;DHT22;24786;51.984;5.872;2022-12-07T00:14:05;4.40;99.90
39019;DHT22;24786;51.984;5.872;2022-12-07T00:16:33;4.30;99.90
39019;DHT22;24786;51.984;5.872;2022-12-07T00:18:59;4.30;99.90
39019;DHT22;24786;51.984;5.872;2022-12-07T00:21:30;4.30;99.90
39019;DHT22;24786;51.984;5.872;2022-12-07T00:23:56;4.30;99.90
39019;DHT22;24786;51.984;5.872;2022-12-07T00:26:24;4.20;99.90
39019;DHT22;24786;51.984;5.872;2022-12-07T00:28:56;4.20;99.90
39019;DHT22;24786;51.984;5.872;2022-12-07T00:31:24;4.20;99.90
39019;DHT22;24786;51.984;5.872;2022-12-07T00:33:50;4.10;99.90
39019;DHT22;24786;51.984;5.872;2022-12-07T00:36:18;4.10;99.90
39019;DHT22;24786;51.984;5.872;2022-12-07T00:38:44;4.10;99.90
39019;DHT22;24786;51.984;5.872;2022-12-07T00:41:11;4.10;99.90
39019;DHT22;24786;51.984;5.872;2022-12-07T00:43:38;4.00;99.90
39019;DHT22;24786;51.984;5.872;2022-12-07T00:46:04;4.00;99.90
39019;DHT22;24786;51.984;5.872;2022-12-07T00:48:29;4.00;99.90
39019;DHT22;24786;51.984;5.872;2022-12-07T00:50:55;4.10;99.90
39019;DHT22;24786;51.984;5.872;2022-12-07T00:53:21;4.10;99.90
39019;DHT22;24786;51.984;5.872;2022-12-07T00:55:46;4.10;99.90
39019;DHT22;24786;51.984;5.872;2022-12-07T00:58:12;4.10;99.90
39019;DHT22;24786;51.984;5.872;2022-12-07T01:00:40;4.10;99.90
39019;DHT22;24786;51.984;5.872;2022-12-07T01:03:07;4.00;99.90
39019;DHT22;24786;51.984;5.872;2022-12-07T01:05:34;4.00;99.90
39019;DHT22;24786;51.984;5.872;2022-12-07T01:08:00;4.00;99.90
39019;DHT22;24786;51.984;5.872;2022-12-07T01:10:26;3.90;99.90
39019;DHT22;24786;51.984;5.872;2022-12-07T01:12:52;3.90;99.90
39019;DHT22;24786;51.984;5.872;2022-12-07T01:15:17;3.90;99.90
39019;DHT22;24786;51.984;5.872;2022-12-07T01:17:43;3.90;99.90
39019;DHT22;24786;51.984;5.872;2022-12-07T01:20:09;3.90;99.90
39019;DHT22;24786;51.984;5.872;2022-12-07T01:22:39;3.80;99.90
39019;DHT22;24786;51.984;5.872;2022-12-07T01:25:06;3.80;99.90
39019;DHT22;24786;51.984;5.872;2022-12-07T01:27:33;3.70;99.90
39019;DHT22;24786;51.984;5.872;2022-12-07T01:30:00;3.70;99.90
39019;DHT22;24786;51.984;5.872;2022-12-07T01:32:25;3.70;99.90
39019;DHT22;24786;51.984;5.872;2022-12-07T01:34:51;3.70;99.90
39019;DHT22;24786;51.984;5.872;2022-12-07T01:37:16;3.70;99.90
39019;DHT22;24786;51.984;5.872;2022-12-07T01:39:42;3.70;99.90
39019;DHT22;24786;51.984;5.872;2022-12-07T01:42:11;3.70;99.90
39019;DHT22;24786;51.984;5.872;2022-12-07T01:47:41;3.70;99.90
39019;DHT22;24786;51.984;5.872;2022-12-07T01:50:08;3.70;99.90
39019;DHT22;24786;51.984;5.872;2022-12-07T01:52:35;3.60;99.90
39019;DHT22;24786;51.984;5.872;2022-12-07T01:55:08;3.60;99.90
39019;DHT22;24786;51.984;5.872;2022-12-07T01:57:37;3.60;99.90
39019;DHT22;24786;51.984;5.872;2022-12-07T02:00:06;3.60;99.90
39019;DHT22;24786;51.984;5.872;2022-12-07T02:02:39;3.50;99.90
39019;DHT22;24786;51.984;5.872;2022-12-07T02:05:07;3.50;99.90
39019;DHT22;24786;51.984;5.872;2022-12-07T02:07:34;3.50;99.90
39019;DHT22;24786;51.984;5.872;2022-12-07T02:12:39;3.50;99.90
39019;DHT22;24786;51.984;5.872;2022-12-07T02:15:05;3.50;99.90
39019;DHT22;24786;51.984;5.872;2022-12-07T02:20:57;3.40;99.90
39019;DHT22;24786;51.984;5.872;2022-12-07T02:23:40;3.40;99.90
39019;DHT22;24786;51.984;5.872;2022-12-07T02:29:09;3.30;99.90
39019;DHT22;24786;51.984;5.872;2022-12-07T02:31:37;3.30;99.90
39019;DHT22;24786;51.984;5.872;2022-12-07T02:40:08;3.30;99.90
39019;DHT22;24786;51.984;5.872;2022-12-07T02:42:40;3.30;99.90
39019;DHT22;24786;51.984;5.872;2022-12-07T02:45:08;3.30;99.90
39019;DHT22;24786;51.984;5.872;2022-12-07T02:47:36;3.30;99.90
39019;DHT22;24786;51.984;5.872;2022-12-07T02:50:04;3.30;99.90
39019;DHT22;24786;51.984;5.872;2022-12-07T02:52:30;3.30;99.90
39019;DHT22;24786;51.984;5.872;2022-12-07T02:54:56;3.30;99.90
39019;DHT22;24786;51.984;5.872;2022-12-07T02:57:49;3.30;99.90
39019;DHT22;24786;51.984;5.872;2022-12-07T03:00:20;3.30;99.90
39019;DHT22;24786;51.984;5.872;2022-12-07T03:02:53;3.30;99.90
39019;DHT22;24786;51.984;5.872;2022-12-07T03:08:11;3.30;99.90
39019;DHT22;24786;51.984;5.872;2022-12-07T03:18:19;3.30;99.90
39019;DHT22;24786;51.984;5.872;2022-12-07T03:20:46;3.30;99.90
39019;DHT22;24786;51.984;5.872;2022-12-07T03:23:15;3.30;99.90
39019;DHT22;24786;51.984;5.872;2022-12-07T03:25:47;3.40;99.90
39019;DHT22;24786;51.984;5.872;2022-12-07T03:28:16;3.40;99.90
39019;DHT22;24786;51.984;5.872;2022-12-07T03:30:52;3.40;99.90
39019;DHT22;24786;51.984;5.872;2022-12-07T03:33:26;3.50;99.90
39019;DHT22;24786;51.984;5.872;2022-12-07T03:36:00;3.50;99.90
39019;DHT22;24786;51.984;5.872;2022-12-07T03:38:39;3.50;99.90
39019;DHT22;24786;51.984;5.872;2022-12-07T03:41:14;3.60;99.90
39019;DHT22;24786;51.984;5.872;2022-12-07T03:43:42;3.60;99.90
39019;DHT22;24786;51.984;5.872;2022-12-07T03:46:35;3.60;99.90
39019;DHT22;24786;51.984;5.872;2022-12-07T03:49:25;3.60;99.90
39019;DHT22;24786;51.984;5.872;2022-12-07T03:57:14;3.60;99.90
39019;DHT22;24786;51.984;5.872;2022-12-07T03:59:40;3.50;99.90
39019;DHT22;24786;51.984;5.872;2022-12-07T04:02:08;3.60;99.90
39019;DHT22;24786;51.984;5.872;2022-12-07T04:04:36;3.60;99.90
39019;DHT22;24786;51.984;5.872;2022-12-07T04:07:02;3.50;99.90
39019;DHT22;24786;51.984;5.872;2022-12-07T04:09:28;3.50;99.90
39019;DHT22;24786;51.984;5.872;2022-12-07T04:11:53;3.50;99.90
39019;DHT22;24786;51.984;5.872;2022-12-07T04:14:19;3.50;99.90
39019;DHT22;24786;51.984;5.872;2022-12-07T04:16:46;3.50;99.90
39019;DHT22;24786;51.984;5.872;2022-12-07T04:19:13;3.50;99.90
39019;DHT22;24786;51.984;5.872;2022-12-07T04:21:39;3.50;99.90
39019;DHT22;24786;51.984;5.872;2022-12-07T04:24:05;3.40;99.90
39019;DHT22;24786;51.984;5.872;2022-12-07T04:26:30;3.40;99.90
39019;DHT22;24786;51.984;5.872;2022-12-07T04:28:56;3.50;99.90
39019;DHT22;24786;51.984;5.872;2022-12-07T04:31:22;3.40;99.90
39019;DHT22;24786;51.984;5.872;2022-12-07T04:33:47;3.40;99.90
39019;DHT22;24786;51.984;5.872;2022-12-07T04:36:13;3.40;99.90
39019;DHT22;24786;51.984;5.872;2022-12-07T04:38:39;3.40;99.90
39019;DHT22;24786;51.984;5.872;2022-12-07T04:41:06;3.40;99.90
39019;DHT22;24786;51.984;5.872;2022-12-07T04:43:31;3.40;99.90
39019;DHT22;24786;51.984;5.872;2022-12-07T04:45:57;3.50;99.90
39019;DHT22;24786;51.984;5.872;2022-12-07T04:48:22;3.40;99.90
39019;DHT22;24786;51.984;5.872;2022-12-07T04:50:49;3.50;99.90
39019;DHT22;24786;51.984;5.872;2022-12-07T04:53:17;3.50;99.90
39019;DHT22;24786;51.984;5.872;2022-12-07T04:55:44;3.50;99.90
39019;DHT22;24786;51.984;5.872;2022-12-07T04:58:10;3.60;99.90
39019;DHT22;24786;51.984;5.872;2022-12-07T05:00:35;3.60;99.90
39019;DHT22;24786;51.984;5.872;2022-12-07T05:03:01;3.60;99.90
39019;DHT22;24786;51.984;5.872;2022-12-07T05:05:26;3.60;99.90
39019;DHT22;24786;51.984;5.872;2022-12-07T05:07:53;3.60;99.90
39019;DHT22;24786;51.984;5.872;2022-12-07T05:10:18;3.50;99.90
39019;DHT22;24786;51.984;5.872;2022-12-07T05:12:44;3.50;99.90
39019;DHT22;24786;51.984;5.872;2022-12-07T05:15:10;3.40;99.90
39019;DHT22;24786;51.984;5.872;2022-12-07T05:17:36;3.40;99.90
39019;DHT22;24786;51.984;5.872;2022-12-07T05:20:02;3.40;99.90
39019;DHT22;24786;51.984;5.872;2022-12-07T05:22:27;3.40;99.90
39019;DHT22;24786;51.984;5.872;2022-12-07T05:24:56;3.30;99.90
39019;DHT22;24786;51.984;5.872;2022-12-07T05:27:22;3.30;99.90
39019;DHT22;24786;51.984;5.872;2022-12-07T05:29:50;3.30;99.90
39019;DHT22;24786;51.984;5.872;2022-12-07T05:32:16;3.30;99.90
39019;DHT22;24786;51.984;5.872;2022-12-07T05:34:41;3.20;99.90
39019;DHT22;24786;51.984;5.872;2022-12-07T05:37:07;3.20;99.90
39019;DHT22;24786;51.984;5.872;2022-12-07T05:39:33;3.30;99.90
39019;DHT22;24786;51.984;5.872;2022-12-07T05:41:58;3.30;99.90
39019;DHT22;24786;51.984;5.872;2022-12-07T05:44:40;3.30;99.90
39019;DHT22;24786;51.984;5.872;2022-12-07T05:47:06;3.30;99.90
39019;DHT22;24786;51.984;5.872;2022-12-07T05:49:31;3.30;99.90
39019;DHT22;24786;51.984;5.872;2022-12-07T05:51:57;3.30;99.90
39019;DHT22;24786;51.984;5.872;2022-12-07T05:54:22;3.30;99.90
39019;DHT22;24786;51.984;5.872;2022-12-07T05:56:48;3.30;99.90
39019;DHT22;24786;51.984;5.872;2022-12-07T05:59:15;3.30;99.90
39019;DHT22;24786;51.984;5.872;2022-12-07T06:02:02;3.30;99.90
39019;DHT22;24786;51.984;5.872;2022-12-07T06:04:31;3.30;99.90
39019;DHT22;24786;51.984;5.872;2022-12-07T06:06:56;3.20;99.90
39019;DHT22;24786;51.984;5.872;2022-12-07T06:09:24;3.20;99.90
39019;DHT22;24786;51.984;5.872;2022-12-07T06:11:50;3.20;99.90
39019;DHT22;24786;51.984;5.872;2022-12-07T06:14:34;3.20;99.90
39019;DHT22;24786;51.984;5.872;2022-12-07T06:17:00;3.10;99.90
39019;DHT22;24786;51.984;5.872;2022-12-07T06:19:25;3.10;99.90
39019;DHT22;24786;51.984;5.872;2022-12-07T06:21:51;3.00;99.90
39019;DHT22;24786;51.984;5.872;2022-12-07T06:24:17;3.00;99.90
39019;DHT22;24786;51.984;5.872;2022-12-07T06:26:43;3.00;99.90
39019;DHT22;24786;51.984;5.872;2022-12-07T06:29:12;2.90;99.90
39019;DHT22;24786;51.984;5.872;2022-12-07T06:31:39;2.90;99.90
39019;DHT22;24786;51.984;5.872;2022-12-07T06:34:08;2.90;99.90
39019;DHT22;24786;51.984;5.872;2022-12-07T06:36:34;2.90;99.90
39019;DHT22;24786;51.984;5.872;2022-12-07T06:39:02;2.90;99.90
39019;DHT22;24786;51.984;5.872;2022-12-07T06:41:28;2.90;99.90
39019;DHT22;24786;51.984;5.872;2022-12-07T06:43:54;2.80;99.90
39019;DHT22;24786;51.984;5.872;2022-12-07T06:46:20;2.90;99.90
39019;DHT22;24786;51.984;5.872;2022-12-07T06:48:46;2.90;99.90
39019;DHT22;24786;51.984;5.872;2022-12-07T06:51:14;2.90;99.90
39019;DHT22;24786;51.984;5.872;2022-12-07T06:53:43;2.90;99.90
39019;DHT22;24786;51.984;5.872;2022-12-07T06:56:09;2.80;99.90
39019;DHT22;24786;51.984;5.872;2022-12-07T06:58:34;2.80;99.90
39019;DHT22;24786;51.984;5.872;2022-12-07T07:01:01;2.80;99.90
39019;DHT22;24786;51.984;5.872;2022-12-07T07:03:27;2.90;99.90
39019;DHT22;24786;51.984;5.872;2022-12-07T07:05:52;2.90;99.90
39019;DHT22;24786;51.984;5.872;2022-12-07T07:08:18;3.00;99.90
39019;DHT22;24786;51.984;5.872;2022-12-07T07:10:43;3.00;99.90
39019;DHT22;24786;51.984;5.872;2022-12-07T07:13:10;3.00;99.90
39019;DHT22;24786;51.984;5.872;2022-12-07T07:15:37;3.10;99.90
39019;DHT22;24786;51.984;5.872;2022-12-07T07:18:03;3.10;99.90
39019;DHT22;24786;51.984;5.872;2022-12-07T07:20:29;3.10;99.90
39019;DHT22;24786;51.984;5.872;2022-12-07T07:22:55;3.10;99.90
39019;DHT22;24786;51.984;5.872;2022-12-07T07:25:21;3.00;99.90
39019;DHT22;24786;51.984;5.872;2022-12-07T07:27:47;3.00;99.90
39019;DHT22;24786;51.984;5.872;2022-12-07T07:30:13;3.10;99.90
39019;DHT22;24786;51.984;5.872;2022-12-07T07:32:38;3.00;99.90
39019;DHT22;24786;51.984;5.872;2022-12-07T07:35:04;3.00;99.90
39019;DHT22;24786;51.984;5.872;2022-12-07T07:37:30;3.00;99.90
39019;DHT22;24786;51.984;5.872;2022-12-07T07:39:56;3.00;99.90
39019;DHT22;24786;51.984;5.872;2022-12-07T07:42:21;3.00;99.90
39019;DHT22;24786;51.984;5.872;2022-12-07T07:44:47;3.00;99.90
39019;DHT22;24786;51.984;5.872;2022-12-07T07:47:13;3.00;99.90
39019;DHT22;24786;51.984;5.872;2022-12-07T07:49:38;2.90;99.90
39019;DHT22;24786;51.984;5.872;2022-12-07T07:52:05;3.00;99.90
39019;DHT22;24786;51.984;5.872;2022-12-07T07:54:31;3.00;99.90
39019;DHT22;24786;51.984;5.872;2022-12-07T07:56:57;2.90;99.90
39019;DHT22;24786;51.984;5.872;2022-12-07T07:59:22;2.90;99.90
39019;DHT22;24786;51.984;5.872;2022-12-07T08:01:48;3.00;99.90
39019;DHT22;24786;51.984;5.872;2022-12-07T08:04:14;3.00;99.90
39019;DHT22;24786;51.984;5.872;2022-12-07T08:06:39;3.00;99.90
39019;DHT22;24786;51.984;5.872;2022-12-07T08:09:07;2.90;99.90
39019;DHT22;24786;51.984;5.872;2022-12-07T08:11:33;3.00;99.90
39019;DHT22;24786;51.984;5.872;2022-12-07T08:13:59;3.00;99.90
39019;DHT22;24786;51.984;5.872;2022-12-07T08:16:25;3.00;99.90
39019;DHT22;24786;51.984;5.872;2022-12-07T08:18:51;3.00;99.90
39019;DHT22;24786;51.984;5.872;2022-12-07T08:21:17;3.00;99.90
39019;DHT22;24786;51.984;5.872;2022-12-07T08:23:44;3.10;99.90
39019;DHT22;24786;51.984;5.872;2022-12-07T08:26:15;3.20;99.90
39019;DHT22;24786;51.984;5.872;2022-12-07T08:28:42;3.20;99.90
39019;DHT22;24786;51.984;5.872;2022-12-07T08:31:13;3.30;99.90
39019;DHT22;24786;51.984;5.872;2022-12-07T08:33:41;3.40;99.90
39019;DHT22;24786;51.984;5.872;2022-12-07T08:36:09;3.40;99.90
39019;DHT22;24786;51.984;5.872;2022-12-07T08:38:36;3.50;99.90
39019;DHT22;24786;51.984;5.872;2022-12-07T08:41:03;3.60;99.90
39019;DHT22;24786;51.984;5.872;2022-12-07T08:43:30;3.70;99.90
39019;DHT22;24786;51.984;5.872;2022-12-07T08:48:30;3.90;99.90
39019;DHT22;24786;51.984;5.872;2022-12-07T08:50:56;3.80;99.90
39019;DHT22;24786;51.984;5.872;2022-12-07T08:53:22;3.80;99.90
39019;DHT22;24786;51.984;5.872;2022-12-07T08:55:48;3.90;99.90
39019;DHT22;24786;51.984;5.872;2022-12-07T08:58:14;3.80;99.90
39019;DHT22;24786;51.984;5.872;2022-12-07T09:00:39;3.90;99.90
39019;DHT22;24786;51.984;5.872;2022-12-07T09:03:05;3.90;99.90
39019;DHT22;24786;51.984;5.872;2022-12-07T09:05:32;3.90;99.90
39019;DHT22;24786;51.984;5.872;2022-12-07T09:08:00;3.90;99.90
39019;DHT22;24786;51.984;5.872;2022-12-07T09:10:27;3.90;99.90
39019;DHT22;24786;51.984;5.872;2022-12-07T09:12:53;4.00;99.90
39019;DHT22;24786;51.984;5.872;2022-12-07T09:15:19;4.00;99.90
39019;DHT22;24786;51.984;5.872;2022-12-07T09:17:44;4.00;99.90
39019;DHT22;24786;51.984;5.872;2022-12-07T09:20:10;4.10;99.90
39019;DHT22;24786;51.984;5.872;2022-12-07T09:22:36;4.10;99.90
39019;DHT22;24786;51.984;5.872;2022-12-07T09:25:02;4.10;99.90
39019;DHT22;24786;51.984;5.872;2022-12-07T09:27:28;4.20;99.90
39019;DHT22;24786;51.984;5.872;2022-12-07T09:29:54;4.30;99.90
39019;DHT22;24786;51.984;5.872;2022-12-07T09:32:20;4.40;99.90
39019;DHT22;24786;51.984;5.872;2022-12-07T09:34:45;4.50;99.90
39019;DHT22;24786;51.984;5.872;2022-12-07T09:37:11;4.50;99.90
39019;DHT22;24786;51.984;5.872;2022-12-07T09:39:40;4.60;99.90
39019;DHT22;24786;51.984;5.872;2022-12-07T09:42:06;4.60;99.90
39019;DHT22;24786;51.984;5.872;2022-12-07T09:44:33;4.70;99.90
39019;DHT22;24786;51.984;5.872;2022-12-07T09:47:00;4.70;99.90
39019;DHT22;24786;51.984;5.872;2022-12-07T09:49:29;4.80;99.90
39019;DHT22;24786;51.984;5.872;2022-12-07T09:54:36;4.90;99.90
39019;DHT22;24786;51.984;5.872;2022-12-07T09:57:03;4.90;99.90
39019;DHT22;24786;51.984;5.872;2022-12-07T09:59:29;4.90;99.90
39019;DHT22;24786;51.984;5.872;2022-12-07T10:01:55;4.90;99.90
39019;DHT22;24786;51.984;5.872;2022-12-07T10:04:23;4.90;99.90
39019;DHT22;24786;51.984;5.872;2022-12-07T10:06:49;4.90;99.90
39019;DHT22;24786;51.984;5.872;2022-12-07T10:09:18;4.90;99.90
39019;DHT22;24786;51.984;5.872;2022-12-07T10:14:34;4.80;99.90
39019;DHT22;24786;51.984;5.872;2022-12-07T10:17:00;4.80;99.90
39019;DHT22;24786;51.984;5.872;2022-12-07T10:19:31;4.80;99.90
39019;DHT22;24786;51.984;5.872;2022-12-07T10:22:11;4.80;99.90
39019;DHT22;24786;51.984;5.872;2022-12-07T10:24:39;4.80;99.90
39019;DHT22;24786;51.984;5.872;2022-12-07T10:27:21;4.90;99.90
39019;DHT22;24786;51.984;5.872;2022-12-07T10:29:50;4.90;99.90
39019;DHT22;24786;51.984;5.872;2022-12-07T10:34:42;4.90;99.90
39019;DHT22;24786;51.984;5.872;2022-12-07T10:42:43;4.90;99.90
39019;DHT22;24786;51.984;5.872;2022-12-07T10:45:20;5.00;99.90
39019;DHT22;24786;51.984;5.872;2022-12-07T10:56:42;5.40;99.90
39019;DHT22;24786;51.984;5.872;2022-12-07T10:59:46;5.50;99.90
39019;DHT22;24786;51.984;5.872;2022-12-07T11:11:19;5.60;99.90
39019;DHT22;24786;51.984;5.872;2022-12-07T11:16:59;5.50;99.90
39019;DHT22;24786;51.984;5.872;2022-12-07T11:19:44;5.60;99.90
39019;DHT22;24786;51.984;5.872;2022-12-07T11:31:15;5.70;99.90
39019;DHT22;24786;51.984;5.872;2022-12-07T11:35:54;5.80;99.90
39019;DHT22;24786;51.984;5.872;2022-12-07T11:38:47;5.80;99.90
39019;DHT22;24786;51.984;5.872;2022-12-07T11:41:10;5.80;99.90
39019;DHT22;24786;51.984;5.872;2022-12-07T11:46:56;6.00;99.90
39019;DHT22;24786;51.984;5.872;2022-12-07T11:49:47;6.00;99.90
39019;DHT22;24786;51.984;5.872;2022-12-07T11:52:27;6.10;99.90
39019;DHT22;24786;51.984;5.872;2022-12-07T11:54:57;6.20;99.90
39019;DHT22;24786;51.984;5.872;2022-12-07T11:57:37;6.30;99.90
39019;DHT22;24786;51.984;5.872;2022-12-07T12:00:06;6.40;99.90
39019;DHT22;24786;51.984;5.872;2022-12-07T12:02:57;6.50;99.90
39019;DHT22;24786;51.984;5.872;2022-12-07T12:05:25;6.40;99.90
39019;DHT22;24786;51.984;5.872;2022-12-07T12:08:16;6.40;99.90
39019;DHT22;24786;51.984;5.872;2022-12-07T12:11:00;6.40;99.90
39019;DHT22;24786;51.984;5.872;2022-12-07T12:16:29;6.30;99.90
39019;DHT22;24786;51.984;5.872;2022-12-07T12:21:48;6.10;99.90
39019;DHT22;24786;51.984;5.872;2022-12-07T12:24:25;6.00;99.90
39019;DHT22;24786;51.984;5.872;2022-12-07T12:26:58;6.00;99.90
39019;DHT22;24786;51.984;5.872;2022-12-07T12:29:35;6.10;99.90
39019;DHT22;24786;51.984;5.872;2022-12-07T12:42:54;6.50;99.90
39019;DHT22;24786;51.984;5.872;2022-12-07T12:45:26;6.60;99.90
39019;DHT22;24786;51.984;5.872;2022-12-07T12:48:03;6.70;99.90
39019;DHT22;24786;51.984;5.872;2022-12-07T12:53:24;6.70;99.90
39019;DHT22;24786;51.984;5.872;2022-12-07T12:59:23;6.60;99.90
39019;DHT22;24786;51.984;5.872;2022-12-07T13:01:51;6.60;99.90
39019;DHT22;24786;51.984;5.872;2022-12-07T13:04:24;6.70;99.90
39019;DHT22;24786;51.984;5.872;2022-12-07T13:06:51;6.60;99.90
39019;DHT22;24786;51.984;5.872;2022-12-07T13:09:22;6.60;99.90
39019;DHT22;24786;51.984;5.872;2022-12-07T13:11:50;6.70;99.90
39019;DHT22;24786;51.984;5.872;2022-12-07T13:17:12;6.70;99.90
39019;DHT22;24786;51.984;5.872;2022-12-07T13:19:53;6.70;99.90
39019;DHT22;24786;51.984;5.872;2022-12-07T13:22:48;6.70;99.90
39019;DHT22;24786;51.984;5.872;2022-12-07T13:25:18;6.80;99.90
39019;DHT22;24786;51.984;5.872;2022-12-07T13:27:55;7.00;99.90
39019;DHT22;24786;51.984;5.872;2022-12-07T13:30:22;6.90;99.90
39019;DHT22;24786;51.984;5.872;2022-12-07T13:32:52;7.00;99.90
39019;DHT22;24786;51.984;5.872;2022-12-07T13:35:29;7.00;99.90
39019;DHT22;24786;51.984;5.872;2022-12-07T13:37:55;6.90;99.90
39019;DHT22;24786;51.984;5.872;2022-12-07T13:40:22;6.90;99.90
39019;DHT22;24786;51.984;5.872;2022-12-07T13:43:03;6.80;99.90
39019;DHT22;24786;51.984;5.872;2022-12-07T13:45:31;6.80;99.90
39019;DHT22;24786;51.984;5.872;2022-12-07T13:48:34;6.80;99.90
39019;DHT22;24786;51.984;5.872;2022-12-07T13:51:02;6.80;99.90
39019;DHT22;24786;51.984;5.872;2022-12-07T13:53:28;6.80;99.90
39019;DHT22;24786;51.984;5.872;2022-12-07T13:55:56;6.80;99.90
39019;DHT22;24786;51.984;5.872;2022-12-07T13:58:23;7.00;99.90
39019;DHT22;24786;51.984;5.872;2022-12-07T14:00:49;7.00;99.90
39019;DHT22;24786;51.984;5.872;2022-12-07T14:05:42;7.10;99.90
39019;DHT22;24786;51.984;5.872;2022-12-07T14:10:52;7.00;99.90
39019;DHT22;24786;51.984;5.872;2022-12-07T14:13:35;7.00;99.90
39019;DHT22;24786;51.984;5.872;2022-12-07T14:16:03;6.90;99.90
39019;DHT22;24786;51.984;5.872;2022-12-07T14:18:36;6.90;99.90
39019;DHT22;24786;51.984;5.872;2022-12-07T14:23:35;6.50;99.90
39019;DHT22;24786;51.984;5.872;2022-12-07T14:26:18;6.30;99.90
39019;DHT22;24786;51.984;5.872;2022-12-07T14:28:44;6.10;99.90
39019;DHT22;24786;51.984;5.872;2022-12-07T14:31:13;6.00;99.90
39019;DHT22;24786;51.984;5.872;2022-12-07T14:33:39;5.90;99.90
39019;DHT22;24786;51.984;5.872;2022-12-07T14:36:05;5.80;99.90
39019;DHT22;24786;51.984;5.872;2022-12-07T14:38:31;5.70;99.90
39019;DHT22;24786;51.984;5.872;2022-12-07T14:40:57;5.70;99.90
39019;DHT22;24786;51.984;5.872;2022-12-07T14:43:42;5.70;99.90
39019;DHT22;24786;51.984;5.872;2022-12-07T14:46:09;5.70;99.90
39019;DHT22;24786;51.984;5.872;2022-12-07T14:48:34;5.70;99.90
39019;DHT22;24786;51.984;5.872;2022-12-07T14:51:00;5.70;99.90
39019;DHT22;24786;51.984;5.872;2022-12-07T14:53:31;5.70;99.90
39019;DHT22;24786;51.984;5.872;2022-12-07T14:55:58;5.70;99.90
39019;DHT22;24786;51.984;5.872;2022-12-07T14:58:24;5.70;99.90
39019;DHT22;24786;51.984;5.872;2022-12-07T15:00:50;5.70;99.90
39019;DHT22;24786;51.984;5.872;2022-12-07T15:03:15;5.70;99.90
39019;DHT22;24786;51.984;5.872;2022-12-07T15:05:41;5.70;99.90
39019;DHT22;24786;51.984;5.872;2022-12-07T15:08:09;5.70;99.90
39019;DHT22;24786;51.984;5.872;2022-12-07T15:10:35;5.60;99.90
39019;DHT22;24786;51.984;5.872;2022-12-07T15:13:04;5.70;99.90
39019;DHT22;24786;51.984;5.872;2022-12-07T15:15:50;5.70;99.90
39019;DHT22;24786;51.984;5.872;2022-12-07T15:18:17;5.60;99.90
39019;DHT22;24786;51.984;5.872;2022-12-07T15:20:43;5.60;99.90
39019;DHT22;24786;51.984;5.872;2022-12-07T15:23:09;5.60;99.90
39019;DHT22;24786;51.984;5.872;2022-12-07T15:25:35;5.60;99.90
39019;DHT22;24786;51.984;5.872;2022-12-07T15:28:00;5.60;99.90
39019;DHT22;24786;51.984;5.872;2022-12-07T15:30:26;5.60;99.90
39019;DHT22;24786;51.984;5.872;2022-12-07T15:32:52;5.50;99.90
39019;DHT22;24786;51.984;5.872;2022-12-07T15:35:19;5.50;99.90
39019;DHT22;24786;51.984;5.872;2022-12-07T15:37:45;5.50;99.90
39019;DHT22;24786;51.984;5.872;2022-12-07T15:40:12;5.40;99.90
39019;DHT22;24786;51.984;5.872;2022-12-07T15:42:37;5.40;99.90
39019;DHT22;24786;51.984;5.872;2022-12-07T15:45:05;5.40;99.90
39019;DHT22;24786;51.984;5.872;2022-12-07T15:47:33;5.40;99.90
39019;DHT22;24786;51.984;5.872;2022-12-07T15:50:00;5.30;99.90
39019;DHT22;24786;51.984;5.872;2022-12-07T15:52:25;5.40;99.90
39019;DHT22;24786;51.984;5.872;2022-12-07T15:54:51;5.40;99.90
39019;DHT22;24786;51.984;5.872;2022-12-07T15:57:17;5.40;99.90
39019;DHT22;24786;51.984;5.872;2022-12-07T15:59:43;5.40;99.90
39019;DHT22;24786;51.984;5.872;2022-12-07T16:02:09;5.30;99.90
39019;DHT22;24786;51.984;5.872;2022-12-07T16:04:35;5.40;99.90
39019;DHT22;24786;51.984;5.872;2022-12-07T16:07:01;5.40;99.90
39019;DHT22;24786;51.984;5.872;2022-12-07T16:09:27;5.40;99.90
39019;DHT22;24786;51.984;5.872;2022-12-07T16:11:52;5.40;99.90
39019;DHT22;24786;51.984;5.872;2022-12-07T16:14:18;5.40;99.90
39019;DHT22;24786;51.984;5.872;2022-12-07T16:16:44;5.40;99.90
39019;DHT22;24786;51.984;5.872;2022-12-07T16:19:09;5.40;99.90
39019;DHT22;24786;51.984;5.872;2022-12-07T16:21:36;5.40;99.90
39019;DHT22;24786;51.984;5.872;2022-12-07T16:24:03;5.40;99.90
39019;DHT22;24786;51.984;5.872;2022-12-07T16:26:29;5.40;99.90
39019;DHT22;24786;51.984;5.872;2022-12-07T16:28:54;5.30;99.90
39019;DHT22;24786;51.984;5.872;2022-12-07T16:31:23;5.30;99.90
39019;DHT22;24786;51.984;5.872;2022-12-07T16:33:52;5.30;99.90
39019;DHT22;24786;51.984;5.872;2022-12-07T16:36:18;5.30;99.90
39019;DHT22;24786;51.984;5.872;2022-12-07T16:38:46;5.30;99.90
39019;DHT22;24786;51.984;5.872;2022-12-07T16:41:12;5.20;99.90
39019;DHT22;24786;51.984;5.872;2022-12-07T16:43:38;5.20;99.90
39019;DHT22;24786;51.984;5.872;2022-12-07T16:46:04;5.20;99.90
39019;DHT22;24786;51.984;5.872;2022-12-07T16:48:29;5.10;99.90
39019;DHT22;24786;51.984;5.872;2022-12-07T16:50:55;5.20;99.90
39019;DHT22;24786;51.984;5.872;2022-12-07T16:53:23;5.10;99.90
39019;DHT22;24786;51.984;5.872;2022-12-07T16:55:49;5.00;99.90
39019;DHT22;24786;51.984;5.872;2022-12-07T16:58:15;5.10;99.90
39019;DHT22;24786;51.984;5.872;2022-12-07T17:00:42;5.00;99.90
39019;DHT22;24786;51.984;5.872;2022-12-07T17:03:08;5.00;99.90
39019;DHT22;24786;51.984;5.872;2022-12-07T17:05:37;5.00;99.90
39019;DHT22;24786;51.984;5.872;2022-12-07T17:08:04;5.00;99.90
39019;DHT22;24786;51.984;5.872;2022-12-07T17:10:30;4.90;99.90
39019;DHT22;24786;51.984;5.872;2022-12-07T17:12:55;4.90;99.90
39019;DHT22;24786;51.984;5.872;2022-12-07T17:15:21;4.90;99.90
39019;DHT22;24786;51.984;5.872;2022-12-07T17:17:52;4.90;99.90
39019;DHT22;24786;51.984;5.872;2022-12-07T17:20:19;4.90;99.90
39019;DHT22;24786;51.984;5.872;2022-12-07T17:22:45;4.80;99.90
39019;DHT22;24786;51.984;5.872;2022-12-07T17:25:11;4.80;99.90
39019;DHT22;24786;51.984;5.872;2022-12-07T17:27:37;4.80;99.90
39019;DHT22;24786;51.984;5.872;2022-12-07T17:30:04;4.80;99.90
39019;DHT22;24786;51.984;5.872;2022-12-07T17:32:30;4.80;99.90
39019;DHT22;24786;51.984;5.872;2022-12-07T17:34:55;4.70;99.90
39019;DHT22;24786;51.984;5.872;2022-12-07T17:37:21;4.70;99.90
39019;DHT22;24786;51.984;5.872;2022-12-07T17:39:46;4.70;99.90
39019;DHT22;24786;51.984;5.872;2022-12-07T17:42:12;4.70;99.90
39019;DHT22;24786;51.984;5.872;2022-12-07T17:44:56;4.70;99.90
39019;DHT22;24786;51.984;5.872;2022-12-07T17:47:22;4.70;99.90
39019;DHT22;24786;51.984;5.872;2022-12-07T17:49:47;4.70;99.90
39019;DHT22;24786;51.984;5.872;2022-12-07T17:52:13;4.60;99.90